sensor_id;sensor_type;location;lat;lon;timestamp;temperature;humidity
5392;DHT22;2719;53.624;9.786;2022-11-23T00:01:19;4.00;99.90
5392;DHT22;2719;53.624;9.786;2022-11-23T00:03:48;4.00;99.90
5392;DHT22;2719;53.624;9.786;2022-11-23T00:06:16;4.00;99.90
5392;DHT22;2719;53.624;9.786;2022-11-23T00:08:43;4.10;99.90
5392;DHT22;2719;53.624;9.786;2022-11-23T00:11:10;4.00;99.90
5392;DHT22;2719;53.624;9.786;2022-11-23T00:13:37;4.00;99.90
5392;DHT22;2719;53.624;9.786;2022-11-23T00:16:07;4.00;99.90
5392;DHT22;2719;53.624;9.786;2022-11-23T00:18:34;4.00;99.90
5392;DHT22;2719;53.624;9.786;2022-11-23T00:21:05;4.00;99.90
5392;DHT22;2719;53.624;9.786;2022-11-23T00:23:32;4.00;99.90
5392;DHT22;2719;53.624;9.786;2022-11-23T00:25:59;3.90;99.90
5392;DHT22;2719;53.624;9.786;2022-11-23T00:28:25;3.90;99.90
5392;DHT22;2719;53.624;9.786;2022-11-23T00:30:52;4.10;99.90
5392;DHT22;2719;53.624;9.786;2022-11-23T00:33:20;4.10;99.90
5392;DHT22;2719;53.624;9.786;2022-11-23T00:35:47;4.10;99.90
5392;DHT22;2719;53.624;9.786;2022-11-23T00:38:13;4.10;99.90
5392;DHT22;2719;53.624;9.786;2022-11-23T00:40:40;4.10;99.90
5392;DHT22;2719;53.624;9.786;2022-11-23T00:43:07;4.10;99.90
5392;DHT22;2719;53.624;9.786;2022-11-23T00:45:33;4.10;99.90
5392;DHT22;2719;53.624;9.786;2022-11-23T00:48:00;4.00;99.90
5392;DHT22;2719;53.624;9.786;2022-11-23T00:50:28;4.10;99.90
5392;DHT22;2719;53.624;9.786;2022-11-23T00:52:54;4.10;99.90
5392;DHT22;2719;53.624;9.786;2022-11-23T00:55:21;4.10;99.90
5392;DHT22;2719;53.624;9.786;2022-11-23T00:57:48;4.10;99.90
5392;DHT22;2719;53.624;9.786;2022-11-23T01:00:15;4.00;99.90
5392;DHT22;2719;53.624;9.786;2022-11-23T01:02:42;4.10;99.90
5392;DHT22;2719;53.624;9.786;2022-11-23T01:05:09;4.10;99.90
5392;DHT22;2719;53.624;9.786;2022-11-23T01:07:37;4.00;99.90
5392;DHT22;2719;53.624;9.786;2022-11-23T01:10:04;4.10;99.90
5392;DHT22;2719;53.624;9.786;2022-11-23T01:12:32;4.10;99.90
5392;DHT22;2719;53.624;9.786;2022-11-23T01:14:59;4.20;99.90
5392;DHT22;2719;53.624;9.786;2022-11-23T01:17:25;4.10;99.90
5392;DHT22;2719;53.624;9.786;2022-11-23T01:19:52;4.10;99.90
5392;DHT22;2719;53.624;9.786;2022-11-23T01:22:19;4.10;99.90
5392;DHT22;2719;53.624;9.786;2022-11-23T01:24:48;4.10;99.90
5392;DHT22;2719;53.624;9.786;2022-11-23T01:27:15;4.20;99.90
5392;DHT22;2719;53.624;9.786;2022-11-23T01:29:41;4.10;99.90
5392;DHT22;2719;53.624;9.786;2022-11-23T01:32:08;4.30;99.90
5392;DHT22;2719;53.624;9.786;2022-11-23T01:34:35;4.20;99.90
5392;DHT22;2719;53.624;9.786;2022-11-23T01:37:02;4.30;99.90
5392;DHT22;2719;53.624;9.786;2022-11-23T01:39:28;4.30;99.90
5392;DHT22;2719;53.624;9.786;2022-11-23T01:41:56;4.40;99.90
5392;DHT22;2719;53.624;9.786;2022-11-23T01:44:28;4.30;99.90
5392;DHT22;2719;53.624;9.786;2022-11-23T01:46:56;4.30;99.90
5392;DHT22;2719;53.624;9.786;2022-11-23T01:49:24;4.30;99.90
5392;DHT22;2719;53.624;9.786;2022-11-23T01:51:53;4.20;99.90
5392;DHT22;2719;53.624;9.786;2022-11-23T01:54:24;4.20;99.90
5392;DHT22;2719;53.624;9.786;2022-11-23T01:56:53;4.20;99.90
5392;DHT22;2719;53.624;9.786;2022-11-23T01:59:22;4.20;99.90
5392;DHT22;2719;53.624;9.786;2022-11-23T02:01:50;4.30;99.90
5392;DHT22;2719;53.624;9.786;2022-11-23T02:04:22;4.20;99.90
5392;DHT22;2719;53.624;9.786;2022-11-23T02:06:51;4.30;99.90
5392;DHT22;2719;53.624;9.786;2022-11-23T02:09:19;4.20;99.90
5392;DHT22;2719;53.624;9.786;2022-11-23T02:11:47;4.30;99.90
5392;DHT22;2719;53.624;9.786;2022-11-23T02:14:13;4.30;99.90
5392;DHT22;2719;53.624;9.786;2022-11-23T02:16:42;4.20;99.90
5392;DHT22;2719;53.624;9.786;2022-11-23T02:19:14;4.30;99.90
5392;DHT22;2719;53.624;9.786;2022-11-23T02:21:42;4.20;99.90
5392;DHT22;2719;53.624;9.786;2022-11-23T02:24:14;4.30;99.90
5392;DHT22;2719;53.624;9.786;2022-11-23T02:26:45;4.40;99.90
5392;DHT22;2719;53.624;9.786;2022-11-23T02:29:16;4.50;99.90
5392;DHT22;2719;53.624;9.786;2022-11-23T02:31:43;4.40;99.90
5392;DHT22;2719;53.624;9.786;2022-11-23T02:34:10;4.50;99.90
5392;DHT22;2719;53.624;9.786;2022-11-23T02:36:39;4.60;99.90
5392;DHT22;2719;53.624;9.786;2022-11-23T02:39:11;4.40;99.90
5392;DHT22;2719;53.624;9.786;2022-11-23T02:41:40;4.50;99.90
5392;DHT22;2719;53.624;9.786;2022-11-23T02:46:54;4.50;99.90
5392;DHT22;2719;53.624;9.786;2022-11-23T02:49:21;4.50;99.90
5392;DHT22;2719;53.624;9.786;2022-11-23T02:51:48;4.50;99.90
5392;DHT22;2719;53.624;9.786;2022-11-23T02:54:15;4.50;99.90
5392;DHT22;2719;53.624;9.786;2022-11-23T02:56:41;4.60;99.90
5392;DHT22;2719;53.624;9.786;2022-11-23T02:59:09;4.60;99.90
5392;DHT22;2719;53.624;9.786;2022-11-23T03:01:36;4.60;99.90
5392;DHT22;2719;53.624;9.786;2022-11-23T03:04:04;4.60;99.90
5392;DHT22;2719;53.624;9.786;2022-11-23T03:06:31;4.70;99.90
5392;DHT22;2719;53.624;9.786;2022-11-23T03:08:58;4.60;99.90
5392;DHT22;2719;53.624;9.786;2022-11-23T03:11:24;4.60;99.90
5392;DHT22;2719;53.624;9.786;2022-11-23T03:13:51;4.70;99.90
5392;DHT22;2719;53.624;9.786;2022-11-23T03:16:19;4.50;99.90
5392;DHT22;2719;53.624;9.786;2022-11-23T03:18:46;4.60;99.90
5392;DHT22;2719;53.624;9.786;2022-11-23T03:21:12;4.50;99.90
5392;DHT22;2719;53.624;9.786;2022-11-23T03:23:39;4.60;99.90
5392;DHT22;2719;53.624;9.786;2022-11-23T03:26:06;4.50;99.90
5392;DHT22;2719;53.624;9.786;2022-11-23T03:28:33;4.60;99.90
5392;DHT22;2719;53.624;9.786;2022-11-23T03:31:00;4.50;99.90
5392;DHT22;2719;53.624;9.786;2022-11-23T03:33:28;4.50;99.90
5392;DHT22;2719;53.624;9.786;2022-11-23T03:35:54;4.40;99.90
5392;DHT22;2719;53.624;9.786;2022-11-23T03:38:21;4.40;99.90
5392;DHT22;2719;53.624;9.786;2022-11-23T03:40:48;4.50;99.90
5392;DHT22;2719;53.624;9.786;2022-11-23T03:43:14;4.50;99.90
5392;DHT22;2719;53.624;9.786;2022-11-23T03:45:41;4.50;99.90
5392;DHT22;2719;53.624;9.786;2022-11-23T03:48:08;4.60;99.90
5392;DHT22;2719;53.624;9.786;2022-11-23T03:50:36;4.60;99.90
5392;DHT22;2719;53.624;9.786;2022-11-23T03:53:03;4.70;99.90
5392;DHT22;2719;53.624;9.786;2022-11-23T03:55:30;4.70;99.90
5392;DHT22;2719;53.624;9.786;2022-11-23T03:57:57;4.70;99.90
5392;DHT22;2719;53.624;9.786;2022-11-23T04:00:26;4.70;99.90
5392;DHT22;2719;53.624;9.786;2022-11-23T04:02:53;4.70;99.90
5392;DHT22;2719;53.624;9.786;2022-11-23T04:05:21;4.80;99.90
5392;DHT22;2719;53.624;9.786;2022-11-23T04:07:49;4.80;99.90
5392;DHT22;2719;53.624;9.786;2022-11-23T04:10:16;4.80;99.90
5392;DHT22;2719;53.624;9.786;2022-11-23T04:12:43;4.80;99.90
5392;DHT22;2719;53.624;9.786;2022-11-23T04:15:10;4.80;99.90
5392;DHT22;2719;53.624;9.786;2022-11-23T04:17:37;4.80;99.90
5392;DHT22;2719;53.624;9.786;2022-11-23T04:20:05;4.80;99.90
5392;DHT22;2719;53.624;9.786;2022-11-23T04:22:32;4.70;99.90
5392;DHT22;2719;53.624;9.786;2022-11-23T04:25:00;4.70;99.90
5392;DHT22;2719;53.624;9.786;2022-11-23T04:27:27;4.80;99.90
5392;DHT22;2719;53.624;9.786;2022-11-23T04:29:53;4.80;99.90
5392;DHT22;2719;53.624;9.786;2022-11-23T04:32:20;4.90;99.90
5392;DHT22;2719;53.624;9.786;2022-11-23T04:34:47;4.90;99.90
5392;DHT22;2719;53.624;9.786;2022-11-23T04:37:13;4.90;99.90
5392;DHT22;2719;53.624;9.786;2022-11-23T04:39:40;4.90;99.90
5392;DHT22;2719;53.624;9.786;2022-11-23T04:42:10;5.00;99.90
5392;DHT22;2719;53.624;9.786;2022-11-23T04:44:37;4.90;99.90
5392;DHT22;2719;53.624;9.786;2022-11-23T04:47:04;5.00;99.90
5392;DHT22;2719;53.624;9.786;2022-11-23T04:49:30;4.90;99.90
5392;DHT22;2719;53.624;9.786;2022-11-23T04:51:57;5.00;99.90
5392;DHT22;2719;53.624;9.786;2022-11-23T04:54:23;4.80;99.90
5392;DHT22;2719;53.624;9.786;2022-11-23T04:56:50;4.90;99.90
5392;DHT22;2719;53.624;9.786;2022-11-23T04:59:19;5.00;99.90
5392;DHT22;2719;53.624;9.786;2022-11-23T05:01:47;5.10;99.90
5392;DHT22;2719;53.624;9.786;2022-11-23T05:04:14;5.00;99.90
5392;DHT22;2719;53.624;9.786;2022-11-23T05:06:41;4.90;99.90
5392;DHT22;2719;53.624;9.786;2022-11-23T05:09:07;5.00;99.90
5392;DHT22;2719;53.624;9.786;2022-11-23T05:11:34;5.00;99.90
5392;DHT22;2719;53.624;9.786;2022-11-23T05:14:01;5.10;99.90
5392;DHT22;2719;53.624;9.786;2022-11-23T05:16:29;5.00;99.90
5392;DHT22;2719;53.624;9.786;2022-11-23T05:18:55;5.10;99.90
5392;DHT22;2719;53.624;9.786;2022-11-23T05:21:22;5.00;99.90
5392;DHT22;2719;53.624;9.786;2022-11-23T05:23:49;5.00;99.90
5392;DHT22;2719;53.624;9.786;2022-11-23T05:26:15;5.10;99.90
5392;DHT22;2719;53.624;9.786;2022-11-23T05:28:42;5.00;99.90
5392;DHT22;2719;53.624;9.786;2022-11-23T05:31:09;5.10;99.90
5392;DHT22;2719;53.624;9.786;2022-11-23T05:33:37;5.10;99.90
5392;DHT22;2719;53.624;9.786;2022-11-23T05:36:04;5.00;99.90
5392;DHT22;2719;53.624;9.786;2022-11-23T05:38:31;5.10;99.90
5392;DHT22;2719;53.624;9.786;2022-11-23T05:40:57;5.10;99.90
5392;DHT22;2719;53.624;9.786;2022-11-23T05:43:24;5.20;99.90
5392;DHT22;2719;53.624;9.786;2022-11-23T05:45:51;5.10;99.90
5392;DHT22;2719;53.624;9.786;2022-11-23T05:48:18;5.00;99.90
5392;DHT22;2719;53.624;9.786;2022-11-23T05:50:46;5.10;99.90
5392;DHT22;2719;53.624;9.786;2022-11-23T05:53:15;5.10;99.90
5392;DHT22;2719;53.624;9.786;2022-11-23T05:55:42;5.20;99.90
5392;DHT22;2719;53.624;9.786;2022-11-23T05:58:08;5.20;99.90
5392;DHT22;2719;53.624;9.786;2022-11-23T06:00:35;5.20;99.90
5392;DHT22;2719;53.624;9.786;2022-11-23T06:03:02;5.20;99.90
5392;DHT22;2719;53.624;9.786;2022-11-23T06:05:29;5.10;99.90
5392;DHT22;2719;53.624;9.786;2022-11-23T06:07:57;5.10;99.90
5392;DHT22;2719;53.624;9.786;2022-11-23T06:10:24;5.10;99.90
5392;DHT22;2719;53.624;9.786;2022-11-23T06:12:51;5.10;99.90
5392;DHT22;2719;53.624;9.786;2022-11-23T06:15:18;5.10;99.90
5392;DHT22;2719;53.624;9.786;2022-11-23T06:17:45;5.10;99.90
5392;DHT22;2719;53.624;9.786;2022-11-23T06:20:11;5.10;99.90
5392;DHT22;2719;53.624;9.786;2022-11-23T06:22:38;5.10;99.90
5392;DHT22;2719;53.624;9.786;2022-11-23T06:25:07;5.10;99.90
5392;DHT22;2719;53.624;9.786;2022-11-23T06:27:33;5.20;99.90
5392;DHT22;2719;53.624;9.786;2022-11-23T06:30:00;5.20;99.90
5392;DHT22;2719;53.624;9.786;2022-11-23T06:32:27;5.20;99.90
5392;DHT22;2719;53.624;9.786;2022-11-23T06:34:53;5.20;99.90
5392;DHT22;2719;53.624;9.786;2022-11-23T06:37:20;5.30;99.90
5392;DHT22;2719;53.624;9.786;2022-11-23T06:39:47;5.30;99.90
5392;DHT22;2719;53.624;9.786;2022-11-23T06:42:14;5.30;99.90
5392;DHT22;2719;53.624;9.786;2022-11-23T06:44:41;5.30;99.90
5392;DHT22;2719;53.624;9.786;2022-11-23T06:47:08;5.40;99.90
5392;DHT22;2719;53.624;9.786;2022-11-23T06:49:36;5.30;99.90
5392;DHT22;2719;53.624;9.786;2022-11-23T06:52:04;5.40;99.90
5392;DHT22;2719;53.624;9.786;2022-11-23T06:54:30;5.40;99.90
5392;DHT22;2719;53.624;9.786;2022-11-23T06:56:57;5.30;99.90
5392;DHT22;2719;53.624;9.786;2022-11-23T06:59:25;5.20;99.90
5392;DHT22;2719;53.624;9.786;2022-11-23T07:01:52;5.20;99.90
5392;DHT22;2719;53.624;9.786;2022-11-23T07:04:18;5.20;99.90
5392;DHT22;2719;53.624;9.786;2022-11-23T07:06:45;5.20;99.90
5392;DHT22;2719;53.624;9.786;2022-11-23T07:09:12;5.20;99.90
5392;DHT22;2719;53.624;9.786;2022-11-23T07:11:38;5.20;99.90
5392;DHT22;2719;53.624;9.786;2022-11-23T07:14:05;5.20;99.90
5392;DHT22;2719;53.624;9.786;2022-11-23T07:16:33;5.20;99.90
5392;DHT22;2719;53.624;9.786;2022-11-23T07:19:00;5.20;99.90
5392;DHT22;2719;53.624;9.786;2022-11-23T07:21:27;5.20;99.90
5392;DHT22;2719;53.624;9.786;2022-11-23T07:23:54;5.10;99.90
5392;DHT22;2719;53.624;9.786;2022-11-23T07:26:20;5.30;99.90
5392;DHT22;2719;53.624;9.786;2022-11-23T07:28:47;5.20;99.90
5392;DHT22;2719;53.624;9.786;2022-11-23T07:31:14;5.30;99.90
5392;DHT22;2719;53.624;9.786;2022-11-23T07:33:44;5.30;99.90
5392;DHT22;2719;53.624;9.786;2022-11-23T07:36:11;5.30;99.90
5392;DHT22;2719;53.624;9.786;2022-11-23T07:38:37;5.40;99.90
5392;DHT22;2719;53.624;9.786;2022-11-23T07:41:04;5.40;99.90
5392;DHT22;2719;53.624;9.786;2022-11-23T07:43:31;5.40;99.90
5392;DHT22;2719;53.624;9.786;2022-11-23T07:45:58;5.40;99.90
5392;DHT22;2719;53.624;9.786;2022-11-23T07:48:25;5.30;99.90
5392;DHT22;2719;53.624;9.786;2022-11-23T07:50:53;5.40;99.90
5392;DHT22;2719;53.624;9.786;2022-11-23T07:53:20;5.40;99.90
5392;DHT22;2719;53.624;9.786;2022-11-23T07:55:48;5.50;99.90
5392;DHT22;2719;53.624;9.786;2022-11-23T07:58:14;5.50;99.90
5392;DHT22;2719;53.624;9.786;2022-11-23T08:00:41;5.50;99.90
5392;DHT22;2719;53.624;9.786;2022-11-23T08:03:09;5.60;99.90
5392;DHT22;2719;53.624;9.786;2022-11-23T08:05:37;5.50;99.90
5392;DHT22;2719;53.624;9.786;2022-11-23T08:08:05;5.60;99.90
5392;DHT22;2719;53.624;9.786;2022-11-23T08:10:32;5.60;99.90
5392;DHT22;2719;53.624;9.786;2022-11-23T08:12:59;5.60;99.90
5392;DHT22;2719;53.624;9.786;2022-11-23T08:15:27;5.60;99.90
5392;DHT22;2719;53.624;9.786;2022-11-23T08:17:54;5.60;99.90
5392;DHT22;2719;53.624;9.786;2022-11-23T08:20:21;5.60;99.90
5392;DHT22;2719;53.624;9.786;2022-11-23T08:22:47;5.70;99.90
5392;DHT22;2719;53.624;9.786;2022-11-23T08:25:16;5.60;99.90
5392;DHT22;2719;53.624;9.786;2022-11-23T08:27:42;5.70;99.90
5392;DHT22;2719;53.624;9.786;2022-11-23T08:30:09;5.70;99.90
5392;DHT22;2719;53.624;9.786;2022-11-23T08:32:36;5.70;99.90
5392;DHT22;2719;53.624;9.786;2022-11-23T08:35:03;5.80;99.90
5392;DHT22;2719;53.624;9.786;2022-11-23T08:37:31;5.70;99.90
5392;DHT22;2719;53.624;9.786;2022-11-23T08:39:57;5.80;99.90
5392;DHT22;2719;53.624;9.786;2022-11-23T08:42:25;5.80;99.90
5392;DHT22;2719;53.624;9.786;2022-11-23T08:44:52;5.80;99.90
5392;DHT22;2719;53.624;9.786;2022-11-23T08:47:19;5.80;99.90
5392;DHT22;2719;53.624;9.786;2022-11-23T08:49:45;5.90;99.90
5392;DHT22;2719;53.624;9.786;2022-11-23T08:52:12;5.90;99.90
5392;DHT22;2719;53.624;9.786;2022-11-23T08:54:39;5.90;99.90
5392;DHT22;2719;53.624;9.786;2022-11-23T08:57:06;6.00;99.90
5392;DHT22;2719;53.624;9.786;2022-11-23T08:59:34;6.00;99.90
5392;DHT22;2719;53.624;9.786;2022-11-23T09:02:01;6.00;99.90
5392;DHT22;2719;53.624;9.786;2022-11-23T09:04:27;6.00;99.90
5392;DHT22;2719;53.624;9.786;2022-11-23T09:06:55;6.00;99.90
5392;DHT22;2719;53.624;9.786;2022-11-23T09:09:22;6.10;99.90
5392;DHT22;2719;53.624;9.786;2022-11-23T09:11:49;6.10;99.90
5392;DHT22;2719;53.624;9.786;2022-11-23T09:14:15;6.10;99.90
5392;DHT22;2719;53.624;9.786;2022-11-23T09:16:44;6.20;99.90
5392;DHT22;2719;53.624;9.786;2022-11-23T09:19:12;6.20;99.90
5392;DHT22;2719;53.624;9.786;2022-11-23T09:21:39;6.30;99.90
5392;DHT22;2719;53.624;9.786;2022-11-23T09:24:08;6.30;99.90
5392;DHT22;2719;53.624;9.786;2022-11-23T09:26:35;6.40;99.90
5392;DHT22;2719;53.624;9.786;2022-11-23T09:29:02;6.40;99.90
5392;DHT22;2719;53.624;9.786;2022-11-23T09:31:29;6.50;99.90
5392;DHT22;2719;53.624;9.786;2022-11-23T09:33:57;6.50;99.90
5392;DHT22;2719;53.624;9.786;2022-11-23T09:36:23;6.60;99.90
5392;DHT22;2719;53.624;9.786;2022-11-23T09:38:50;6.60;99.90
5392;DHT22;2719;53.624;9.786;2022-11-23T09:44:20;6.70;99.90
5392;DHT22;2719;53.624;9.786;2022-11-23T09:46:58;6.80;99.90
5392;DHT22;2719;53.624;9.786;2022-11-23T09:49:34;6.80;99.90
5392;DHT22;2719;53.624;9.786;2022-11-23T09:52:02;6.90;99.90
5392;DHT22;2719;53.624;9.786;2022-11-23T09:54:30;6.90;99.90
5392;DHT22;2719;53.624;9.786;2022-11-23T09:56:58;6.90;99.90
5392;DHT22;2719;53.624;9.786;2022-11-23T09:59:35;7.20;99.90
5392;DHT22;2719;53.624;9.786;2022-11-23T10:02:02;7.30;99.90
5392;DHT22;2719;53.624;9.786;2022-11-23T10:04:32;7.30;99.90
5392;DHT22;2719;53.624;9.786;2022-11-23T10:07:07;7.50;99.90
5392;DHT22;2719;53.624;9.786;2022-11-23T10:09:43;7.50;99.90
5392;DHT22;2719;53.624;9.786;2022-11-23T10:12:25;7.50;99.90
5392;DHT22;2719;53.624;9.786;2022-11-23T10:15:03;7.50;99.90
5392;DHT22;2719;53.624;9.786;2022-11-23T10:20:36;7.50;99.90
5392;DHT22;2719;53.624;9.786;2022-11-23T10:23:10;7.50;99.90
5392;DHT22;2719;53.624;9.786;2022-11-23T10:25:41;7.50;99.90
5392;DHT22;2719;53.624;9.786;2022-11-23T10:28:13;7.60;99.90
5392;DHT22;2719;53.624;9.786;2022-11-23T10:30:40;7.60;99.90
5392;DHT22;2719;53.624;9.786;2022-11-23T10:33:16;7.60;99.90
5392;DHT22;2719;53.624;9.786;2022-11-23T10:35:48;7.60;99.90
5392;DHT22;2719;53.624;9.786;2022-11-23T10:38:17;7.60;99.90
5392;DHT22;2719;53.624;9.786;2022-11-23T10:40:57;7.60;99.90
5392;DHT22;2719;53.624;9.786;2022-11-23T10:43:28;7.60;99.90
5392;DHT22;2719;53.624;9.786;2022-11-23T10:49:12;7.70;99.90
5392;DHT22;2719;53.624;9.786;2022-11-23T10:51:48;7.70;99.90
5392;DHT22;2719;53.624;9.786;2022-11-23T10:54:21;7.70;99.90
5392;DHT22;2719;53.624;9.786;2022-11-23T10:56:49;7.80;99.90
5392;DHT22;2719;53.624;9.786;2022-11-23T10:59:34;7.80;99.90
5392;DHT22;2719;53.624;9.786;2022-11-23T11:02:16;7.90;99.90
5392;DHT22;2719;53.624;9.786;2022-11-23T11:04:44;7.90;99.90
5392;DHT22;2719;53.624;9.786;2022-11-23T11:07:32;7.90;99.90
5392;DHT22;2719;53.624;9.786;2022-11-23T11:10:03;7.90;99.90
5392;DHT22;2719;53.624;9.786;2022-11-23T11:12:32;7.90;99.90
5392;DHT22;2719;53.624;9.786;2022-11-23T11:15:02;7.90;99.90
5392;DHT22;2719;53.624;9.786;2022-11-23T11:17:31;7.90;99.90
5392;DHT22;2719;53.624;9.786;2022-11-23T11:19:58;7.90;99.90
5392;DHT22;2719;53.624;9.786;2022-11-23T11:22:29;7.90;99.90
5392;DHT22;2719;53.624;9.786;2022-11-23T11:25:00;8.00;99.90
5392;DHT22;2719;53.624;9.786;2022-11-23T11:27:29;8.00;99.90
5392;DHT22;2719;53.624;9.786;2022-11-23T11:30:00;8.10;99.90
5392;DHT22;2719;53.624;9.786;2022-11-23T11:32:35;8.10;99.90
5392;DHT22;2719;53.624;9.786;2022-11-23T11:35:10;8.10;99.90
5392;DHT22;2719;53.624;9.786;2022-11-23T11:37:41;8.10;99.90
5392;DHT22;2719;53.624;9.786;2022-11-23T11:40:18;8.10;99.90
5392;DHT22;2719;53.624;9.786;2022-11-23T11:42:51;8.10;99.90
5392;DHT22;2719;53.624;9.786;2022-11-23T11:45:22;8.20;99.90
5392;DHT22;2719;53.624;9.786;2022-11-23T11:47:54;8.10;99.90
5392;DHT22;2719;53.624;9.786;2022-11-23T11:50:24;8.10;99.90
5392;DHT22;2719;53.624;9.786;2022-11-23T11:52:55;8.20;99.90
5392;DHT22;2719;53.624;9.786;2022-11-23T11:55:28;8.20;99.90
5392;DHT22;2719;53.624;9.786;2022-11-23T11:58:02;8.30;99.90
5392;DHT22;2719;53.624;9.786;2022-11-23T12:00:29;8.30;99.90
5392;DHT22;2719;53.624;9.786;2022-11-23T12:03:05;8.30;99.90
5392;DHT22;2719;53.624;9.786;2022-11-23T12:05:39;8.30;99.90
5392;DHT22;2719;53.624;9.786;2022-11-23T12:08:12;8.30;99.90
5392;DHT22;2719;53.624;9.786;2022-11-23T12:10:43;8.40;99.90
5392;DHT22;2719;53.624;9.786;2022-11-23T12:13:13;8.40;99.90
5392;DHT22;2719;53.624;9.786;2022-11-23T12:15:44;8.40;99.90
5392;DHT22;2719;53.624;9.786;2022-11-23T12:18:35;8.50;99.90
5392;DHT22;2719;53.624;9.786;2022-11-23T12:21:11;8.50;99.90
5392;DHT22;2719;53.624;9.786;2022-11-23T12:23:47;8.50;99.90
5392;DHT22;2719;53.624;9.786;2022-11-23T12:26:25;8.50;99.90
5392;DHT22;2719;53.624;9.786;2022-11-23T12:29:11;8.50;99.90
5392;DHT22;2719;53.624;9.786;2022-11-23T12:31:42;8.50;99.90
5392;DHT22;2719;53.624;9.786;2022-11-23T12:34:19;8.50;99.90
5392;DHT22;2719;53.624;9.786;2022-11-23T12:37:07;8.50;99.90
5392;DHT22;2719;53.624;9.786;2022-11-23T12:42:41;8.60;99.90
5392;DHT22;2719;53.624;9.786;2022-11-23T12:45:28;8.60;99.90
5392;DHT22;2719;53.624;9.786;2022-11-23T12:48:06;8.60;99.90
5392;DHT22;2719;53.624;9.786;2022-11-23T12:50:40;8.50;99.90
5392;DHT22;2719;53.624;9.786;2022-11-23T12:53:27;8.60;99.90
5392;DHT22;2719;53.624;9.786;2022-11-23T12:56:03;8.60;99.90
5392;DHT22;2719;53.624;9.786;2022-11-23T12:58:33;8.60;99.90
5392;DHT22;2719;53.624;9.786;2022-11-23T13:01:04;8.70;99.90
5392;DHT22;2719;53.624;9.786;2022-11-23T13:03:53;8.70;99.90
5392;DHT22;2719;53.624;9.786;2022-11-23T13:06:58;8.70;99.90
5392;DHT22;2719;53.624;9.786;2022-11-23T13:09:42;8.70;99.90
5392;DHT22;2719;53.624;9.786;2022-11-23T13:12:42;8.70;99.90
5392;DHT22;2719;53.624;9.786;2022-11-23T13:15:41;8.80;99.90
5392;DHT22;2719;53.624;9.786;2022-11-23T13:18:19;8.80;99.90
5392;DHT22;2719;53.624;9.786;2022-11-23T13:21:02;8.80;99.90
5392;DHT22;2719;53.624;9.786;2022-11-23T13:23:35;8.90;99.90
5392;DHT22;2719;53.624;9.786;2022-11-23T13:26:13;8.90;99.90
5392;DHT22;2719;53.624;9.786;2022-11-23T13:28:40;8.90;99.90
5392;DHT22;2719;53.624;9.786;2022-11-23T13:31:26;8.90;99.90
5392;DHT22;2719;53.624;9.786;2022-11-23T13:33:54;8.90;99.90
5392;DHT22;2719;53.624;9.786;2022-11-23T13:36:35;8.90;99.90
5392;DHT22;2719;53.624;9.786;2022-11-23T13:42:20;8.80;99.90
5392;DHT22;2719;53.624;9.786;2022-11-23T13:44:47;8.80;99.90
5392;DHT22;2719;53.624;9.786;2022-11-23T13:47:21;8.80;99.90
5392;DHT22;2719;53.624;9.786;2022-11-23T13:49:49;8.70;99.90
5392;DHT22;2719;53.624;9.786;2022-11-23T13:52:27;8.90;99.90
5392;DHT22;2719;53.624;9.786;2022-11-23T13:55:04;9.00;99.90
5392;DHT22;2719;53.624;9.786;2022-11-23T13:57:31;9.00;99.90
5392;DHT22;2719;53.624;9.786;2022-11-23T14:06:01;9.00;99.90
5392;DHT22;2719;53.624;9.786;2022-11-23T14:08:28;9.00;99.90
5392;DHT22;2719;53.624;9.786;2022-11-23T14:10:56;9.10;99.90
5392;DHT22;2719;53.624;9.786;2022-11-23T14:13:26;9.00;99.90
5392;DHT22;2719;53.624;9.786;2022-11-23T14:15:56;9.00;99.90
5392;DHT22;2719;53.624;9.786;2022-11-23T14:18:43;9.00;99.90
5392;DHT22;2719;53.624;9.786;2022-11-23T14:21:21;9.00;99.90
5392;DHT22;2719;53.624;9.786;2022-11-23T14:26:51;9.00;99.90
5392;DHT22;2719;53.624;9.786;2022-11-23T14:29:28;9.10;99.90
5392;DHT22;2719;53.624;9.786;2022-11-23T14:34:53;9.00;99.90
5392;DHT22;2719;53.624;9.786;2022-11-23T14:37:30;9.10;99.90
5392;DHT22;2719;53.624;9.786;2022-11-23T14:40:19;9.00;99.90
5392;DHT22;2719;53.624;9.786;2022-11-23T14:42:51;9.00;99.90
5392;DHT22;2719;53.624;9.786;2022-11-23T14:45:20;8.90;99.90
5392;DHT22;2719;53.624;9.786;2022-11-23T14:47:47;8.90;99.90
5392;DHT22;2719;53.624;9.786;2022-11-23T14:50:23;8.90;99.90
5392;DHT22;2719;53.624;9.786;2022-11-23T14:52:52;8.90;99.90
5392;DHT22;2719;53.624;9.786;2022-11-23T14:55:21;8.80;99.90
5392;DHT22;2719;53.624;9.786;2022-11-23T14:57:50;8.80;99.90
5392;DHT22;2719;53.624;9.786;2022-11-23T15:00:30;8.80;99.90
5392;DHT22;2719;53.624;9.786;2022-11-23T15:03:00;8.80;99.90
5392;DHT22;2719;53.624;9.786;2022-11-23T15:05:32;8.70;99.90
5392;DHT22;2719;53.624;9.786;2022-11-23T15:08:05;8.70;99.90
5392;DHT22;2719;53.624;9.786;2022-11-23T15:10:41;8.80;99.90
5392;DHT22;2719;53.624;9.786;2022-11-23T15:13:17;8.70;99.90
5392;DHT22;2719;53.624;9.786;2022-11-23T15:15:45;8.70;99.90
5392;DHT22;2719;53.624;9.786;2022-11-23T15:18:25;8.70;99.90
5392;DHT22;2719;53.624;9.786;2022-11-23T15:20:52;8.60;99.90
5392;DHT22;2719;53.624;9.786;2022-11-23T15:23:23;8.60;99.90
5392;DHT22;2719;53.624;9.786;2022-11-23T15:25:50;8.50;99.90
5392;DHT22;2719;53.624;9.786;2022-11-23T15:28:20;8.40;99.90
5392;DHT22;2719;53.624;9.786;2022-11-23T15:30:49;8.40;99.90
5392;DHT22;2719;53.624;9.786;2022-11-23T15:33:18;8.40;99.90
5392;DHT22;2719;53.624;9.786;2022-11-23T15:35:45;8.40;99.90
5392;DHT22;2719;53.624;9.786;2022-11-23T15:38:14;8.40;99.90
5392;DHT22;2719;53.624;9.786;2022-11-23T15:40:44;8.30;99.90
5392;DHT22;2719;53.624;9.786;2022-11-23T15:43:12;8.20;99.90
5392;DHT22;2719;53.624;9.786;2022-11-23T15:45:59;8.30;99.90
5392;DHT22;2719;53.624;9.786;2022-11-23T15:48:27;8.30;99.90
5392;DHT22;2719;53.624;9.786;2022-11-23T15:50:57;8.30;99.90
5392;DHT22;2719;53.624;9.786;2022-11-23T15:53:26;8.30;99.90
5392;DHT22;2719;53.624;9.786;2022-11-23T15:55:58;8.30;99.90
5392;DHT22;2719;53.624;9.786;2022-11-23T15:58:26;8.20;99.90
5392;DHT22;2719;53.624;9.786;2022-11-23T16:00:57;8.10;99.90
5392;DHT22;2719;53.624;9.786;2022-11-23T16:03:32;8.20;99.90
5392;DHT22;2719;53.624;9.786;2022-11-23T16:06:22;8.10;99.90
5392;DHT22;2719;53.624;9.786;2022-11-23T16:08:50;8.10;99.90
5392;DHT22;2719;53.624;9.786;2022-11-23T16:11:36;8.00;99.90
5392;DHT22;2719;53.624;9.786;2022-11-23T16:14:16;8.00;99.90
5392;DHT22;2719;53.624;9.786;2022-11-23T16:16:44;8.00;99.90
5392;DHT22;2719;53.624;9.786;2022-11-23T16:19:27;7.90;99.90
5392;DHT22;2719;53.624;9.786;2022-11-23T16:21:56;7.90;99.90
5392;DHT22;2719;53.624;9.786;2022-11-23T16:24:24;7.90;99.90
5392;DHT22;2719;53.624;9.786;2022-11-23T16:26:53;8.00;99.90
5392;DHT22;2719;53.624;9.786;2022-11-23T16:29:22;7.90;99.90
5392;DHT22;2719;53.624;9.786;2022-11-23T16:31:55;7.90;99.90
5392;DHT22;2719;53.624;9.786;2022-11-23T16:34:22;7.80;99.90
5392;DHT22;2719;53.624;9.786;2022-11-23T16:36:51;7.70;99.90
5392;DHT22;2719;53.624;9.786;2022-11-23T16:39:20;7.70;99.90
5392;DHT22;2719;53.624;9.786;2022-11-23T16:41:47;7.70;99.90
5392;DHT22;2719;53.624;9.786;2022-11-23T16:44:15;7.70;99.90
5392;DHT22;2719;53.624;9.786;2022-11-23T16:46:41;7.70;99.90
5392;DHT22;2719;53.624;9.786;2022-11-23T16:49:13;7.70;99.90
5392;DHT22;2719;53.624;9.786;2022-11-23T16:51:41;7.60;99.90
5392;DHT22;2719;53.624;9.786;2022-11-23T16:54:08;7.60;99.90
5392;DHT22;2719;53.624;9.786;2022-11-23T16:56:35;7.60;99.90
5392;DHT22;2719;53.624;9.786;2022-11-23T16:59:02;7.60;99.90
5392;DHT22;2719;53.624;9.786;2022-11-23T17:01:31;7.60;99.90
5392;DHT22;2719;53.624;9.786;2022-11-23T17:03:58;7.50;99.90